createdAt,value
2019-06-11T00:00:22.263Z,99.99
2019-06-11T00:01:22.921Z,99.99
2019-06-11T00:02:29.929Z,99.99
2019-06-11T00:03:22.166Z,99.99
2019-06-11T00:04:22.870Z,99.99
2019-06-11T00:05:23.423Z,99.99
2019-06-11T00:06:22.835Z,99.99
2019-06-11T00:07:22.065Z,99.99
2019-06-11T00:08:22.568Z,99.99
2019-06-11T00:09:22.099Z,99.99
2019-06-11T00:10:23.198Z,99.99
2019-06-11T00:11:23.158Z,99.99
2019-06-11T00:12:21.235Z,99.99
2019-06-11T00:13:22.450Z,99.99
2019-06-11T00:14:23.086Z,99.99
2019-06-11T00:15:22.583Z,99.99
2019-06-11T00:16:23.129Z,99.99
2019-06-11T00:17:22.350Z,99.99
2019-06-11T00:18:22.830Z,99.99
2019-06-11T00:19:23.006Z,99.99
2019-06-11T00:20:22.850Z,99.99
2019-06-11T00:21:22.542Z,99.99
2019-06-11T00:22:22.771Z,99.99
2019-06-11T00:23:22.199Z,99.99
2019-06-11T00:24:22.590Z,99.99
2019-06-11T00:25:23.389Z,99.99
2019-06-11T00:26:22.563Z,99.99
2019-06-11T00:27:22.528Z,99.99
2019-06-11T00:28:22.205Z,99.99
2019-06-11T00:29:22.849Z,99.99
2019-06-11T00:30:23.171Z,99.99
2019-06-11T00:31:22.911Z,99.99
2019-06-11T00:32:30.195Z,99.99
2019-06-11T00:33:22.503Z,99.99
2019-06-11T00:34:22.899Z,99.99
2019-06-11T00:35:23.096Z,99.99
2019-06-11T00:36:22.735Z,99.99
2019-06-11T00:37:21.971Z,99.99
2019-06-11T00:38:22.999Z,99.99
2019-06-11T00:39:22.467Z,99.99
2019-06-11T00:40:22.969Z,99.99
2019-06-11T00:41:22.736Z,99.99
2019-06-11T00:42:22.083Z,99.99
2019-06-11T00:43:23.055Z,99.99
2019-06-11T00:44:23.080Z,99.99
2019-06-11T00:45:23.149Z,99.99
2019-06-11T00:46:23.190Z,99.99
2019-06-11T00:47:22.634Z,99.99
2019-06-11T00:48:22.855Z,99.99
2019-06-11T00:49:23.074Z,99.99
2019-06-11T00:50:22.873Z,99.99
2019-06-11T00:51:20.695Z,99.99
2019-06-11T00:52:22.582Z,99.99
2019-06-11T00:53:20.665Z,99.99
2019-06-11T00:54:22.978Z,99.99
2019-06-11T00:55:23.100Z,99.99
2019-06-11T00:56:23.152Z,99.99
2019-06-11T00:57:22.614Z,99.99
2019-06-11T00:58:22.523Z,99.99
2019-06-11T00:59:23.050Z,99.99
2019-06-11T01:00:24.310Z,99.99
2019-06-11T01:01:22.498Z,99.99
2019-06-11T01:02:23.110Z,99.99
2019-06-11T01:03:22.741Z,99.99
2019-06-11T01:04:23.036Z,99.99
2019-06-11T01:05:22.561Z,99.99
2019-06-11T01:06:22.955Z,99.99
2019-06-11T01:07:22.646Z,99.99
2019-06-11T01:08:22.579Z,99.99
2019-06-11T01:09:23.383Z,99.99
2019-06-11T01:10:22.666Z,99.99
2019-06-11T01:11:22.607Z,99.99
2019-06-11T01:12:23.166Z,99.99
2019-06-11T01:13:22.661Z,99.99
2019-06-11T01:14:20.369Z,99.99
2019-06-11T01:15:23.131Z,99.99
2019-06-11T01:16:22.739Z,99.99
2019-06-11T01:17:20.324Z,99.99
2019-06-11T01:18:20.313Z,99.99
2019-06-11T01:19:20.296Z,99.99
2019-06-11T01:20:23.313Z,99.99
2019-06-11T01:21:20.272Z,99.99
2019-06-11T01:22:22.673Z,99.99
2019-06-11T01:23:22.340Z,99.99
2019-06-11T01:24:20.225Z,99.99
2019-06-11T01:25:20.211Z,99.99
2019-06-11T01:26:20.198Z,99.99
2019-06-11T01:27:22.195Z,99.99
2019-06-11T01:28:20.169Z,99.99
2019-06-11T01:29:20.153Z,99.99
2019-06-11T01:30:20.150Z,99.99
2019-06-11T01:31:22.562Z,99.99
2019-06-11T01:32:22.172Z,99.99
2019-06-11T01:33:21.500Z,99.99
2019-06-11T01:34:22.325Z,99.99
2019-06-11T01:35:20.072Z,99.99
2019-06-11T01:36:20.055Z,99.99
2019-06-11T01:37:22.663Z,99.99
2019-06-11T01:38:20.034Z,99.99
2019-06-11T01:39:22.059Z,99.99
2019-06-11T01:40:20.000Z,99.99
2019-06-11T01:41:22.319Z,99.99
2019-06-11T01:42:22.022Z,99.99
2019-06-11T01:43:19.960Z,99.99
2019-06-11T01:44:19.944Z,99.99
2019-06-11T01:45:22.668Z,99.99
2019-06-11T01:46:22.212Z,99.99
2019-06-11T01:47:21.936Z,99.99
2019-06-11T01:48:19.880Z,99.99
2019-06-11T01:49:22.171Z,99.99
2019-06-11T01:50:19.861Z,99.99
2019-06-11T01:51:19.841Z,99.99
2019-06-11T01:52:21.935Z,99.99
2019-06-11T01:53:19.809Z,99.99
2019-06-11T01:54:22.296Z,99.99
2019-06-11T01:55:19.779Z,99.99
2019-06-11T01:56:19.777Z,99.99
2019-06-11T01:57:19.750Z,99.99
2019-06-11T01:58:19.738Z,99.99
2019-06-11T01:59:19.727Z,99.99
2019-06-11T02:00:26.344Z,99.99
2019-06-11T02:01:23.237Z,99.99
2019-06-11T02:02:19.680Z,99.99
2019-06-11T02:03:36.167Z,99.99
2019-06-11T02:04:19.655Z,99.99
2019-06-11T02:05:22.161Z,99.99
2019-06-11T02:06:19.624Z,99.99
2019-06-11T02:07:19.617Z,99.99
2019-06-11T02:08:19.597Z,99.99
2019-06-11T02:09:19.581Z,99.99
2019-06-11T02:10:19.567Z,99.99
2019-06-11T02:11:19.555Z,99.99
2019-06-11T02:12:19.536Z,99.99
2019-06-11T02:13:19.522Z,99.99
2019-06-11T02:14:19.511Z,99.99
2019-06-11T02:15:19.500Z,99.99
2019-06-11T02:16:20.337Z,99.99
2019-06-11T02:17:19.467Z,99.99
2019-06-11T02:18:19.453Z,99.99
2019-06-11T02:19:19.441Z,99.99
2019-06-11T02:20:19.424Z,99.99
2019-06-11T02:21:19.408Z,99.99
2019-06-11T02:22:19.397Z,99.99
2019-06-11T02:23:19.383Z,99.99
2019-06-11T02:24:19.363Z,99.99
2019-06-11T02:25:19.354Z,99.99
2019-06-11T02:26:19.338Z,99.99
2019-06-11T02:27:19.340Z,99.99
2019-06-11T02:28:19.306Z,99.99
2019-06-11T02:29:19.297Z,99.99
2019-06-11T02:30:39.278Z,99.99
2019-06-11T02:31:26.013Z,99.99
2019-06-11T02:32:24.051Z,99.99
2019-06-11T02:33:43.835Z,99.99
2019-06-11T02:34:49.490Z,99.99
2019-06-11T02:35:38.912Z,99.99
2019-06-11T02:36:30.085Z,99.99
2019-06-11T02:37:24.578Z,99.99
2019-06-11T02:38:27.523Z,99.99
2019-06-11T02:39:24.983Z,99.99
2019-06-11T02:40:24.172Z,99.99
2019-06-11T02:41:24.137Z,99.99
2019-06-11T02:42:25.855Z,99.99
2019-06-11T02:43:27.211Z,99.99
2019-06-11T02:44:25.168Z,99.99
2019-06-11T02:45:25.109Z,99.99
2019-06-11T02:46:25.443Z,99.99
2019-06-11T02:47:27.669Z,99.99
2019-06-11T02:48:24.667Z,99.99
2019-06-11T02:49:26.816Z,99.99
2019-06-11T02:50:28.054Z,99.99
2019-06-11T02:51:26.939Z,99.99
2019-06-11T02:52:27.231Z,99.99
2019-06-11T02:53:26.569Z,99.99
2019-06-11T02:54:25.213Z,99.99
2019-06-11T02:55:27.689Z,99.99
2019-06-11T02:56:27.774Z,99.99
2019-06-11T02:57:24.308Z,99.99
2019-06-11T02:58:26.289Z,99.99
2019-06-11T02:59:28.225Z,99.99
2019-06-11T03:00:34.878Z,99.99
2019-06-11T03:01:29.462Z,99.99
2019-06-11T03:02:26.184Z,99.99
2019-06-11T03:03:27.632Z,99.99
2019-06-11T03:04:45.526Z,99.99
2019-06-11T03:05:33.161Z,99.99
2019-06-11T03:06:25.543Z,99.99
2019-06-11T03:07:25.698Z,99.99
2019-06-11T03:08:25.956Z,99.99
2019-06-11T03:09:28.697Z,99.99
2019-06-11T03:10:26.851Z,99.99
2019-06-11T03:11:28.392Z,99.99
2019-06-11T03:12:22.609Z,99.99
2019-06-11T03:13:26.754Z,99.99
2019-06-11T03:14:24.225Z,99.99
2019-06-11T03:15:28.162Z,99.99
2019-06-11T03:16:29.518Z,99.99
2019-06-11T03:17:26.283Z,99.99
2019-06-11T03:18:27.244Z,99.99
2019-06-11T03:19:24.596Z,99.99
2019-06-11T03:20:23.062Z,99.99
2019-06-11T03:21:23.141Z,99.99
2019-06-11T03:22:24.269Z,99.99
2019-06-11T03:23:21.711Z,99.99
2019-06-11T03:24:25.040Z,99.99
2019-06-11T03:25:24.694Z,99.99
2019-06-11T03:26:26.575Z,99.99
2019-06-11T03:27:24.177Z,99.99
2019-06-11T03:28:20.082Z,99.99
2019-06-11T03:29:24.267Z,99.99
2019-06-11T03:30:41.882Z,99.99
2019-06-11T03:31:52.345Z,99.99
2019-06-11T03:33:18.473Z,99.99
2019-06-11T03:33:47.978Z,99.99
2019-06-11T03:35:33.777Z,99.99
2019-06-11T03:37:44.590Z,99.99
2019-06-11T03:38:38.095Z,99.99
2019-06-11T03:39:34.418Z,99.99
2019-06-11T03:40:22.222Z,99.99
2019-06-11T03:41:25.592Z,99.99
2019-06-11T03:42:22.363Z,99.99
2019-06-11T03:43:22.013Z,99.99
2019-06-11T03:44:22.146Z,99.99
2019-06-11T03:45:20.208Z,99.99
2019-06-11T03:46:28.594Z,99.99
2019-06-11T03:47:22.713Z,99.99
2019-06-11T03:48:20.848Z,99.99
2019-06-11T03:49:24.354Z,99.99
2019-06-11T03:50:21.711Z,99.99
2019-06-11T03:51:23.305Z,99.99
2019-06-11T03:52:21.747Z,99.99
2019-06-11T03:53:20.254Z,99.99
2019-06-11T03:54:20.713Z,99.99
2019-06-11T03:55:20.391Z,99.99
2019-06-11T03:56:22.506Z,99.99
2019-06-11T03:57:20.120Z,99.99
2019-06-11T03:58:24.282Z,99.99
2019-06-11T03:59:21.882Z,99.99
2019-06-11T04:00:33.627Z,99.99
2019-06-11T04:01:21.452Z,99.99
2019-06-11T04:02:21.136Z,99.99
2019-06-11T04:03:20.407Z,99.99
2019-06-11T04:04:20.728Z,99.99
2019-06-11T04:05:20.441Z,99.99
2019-06-11T04:06:43.724Z,99.99
2019-06-11T04:07:33.754Z,99.99
2019-06-11T04:08:19.634Z,99.99
2019-06-11T04:09:20.318Z,99.99
2019-06-11T04:10:19.485Z,99.99
2019-06-11T04:11:19.366Z,99.99
2019-06-11T04:12:20.356Z,99.99
2019-06-11T04:13:20.535Z,99.99
2019-06-11T04:14:19.509Z,99.99
2019-06-11T04:15:20.459Z,99.99
2019-06-11T04:16:54.579Z,99.99
2019-06-11T04:17:36.788Z,99.99
2019-06-11T04:18:19.500Z,99.99
2019-06-11T04:19:23.530Z,99.99
2019-06-11T04:20:20.880Z,99.99
2019-06-11T04:21:23.676Z,99.99
2019-06-11T04:22:20.630Z,99.99
2019-06-11T04:23:23.852Z,99.99
2019-06-11T04:24:19.704Z,99.99
2019-06-11T04:25:21.356Z,99.99
2019-06-11T04:26:20.049Z,99.99
2019-06-11T04:27:21.039Z,99.99
2019-06-11T04:28:20.554Z,99.99
2019-06-11T04:29:19.478Z,99.99
2019-06-11T04:30:29.514Z,99.99
2019-06-11T04:31:19.254Z,99.99
2019-06-11T04:32:20.249Z,99.99
2019-06-11T04:33:18.276Z,99.99
2019-06-11T04:34:19.513Z,99.99
2019-06-11T04:35:21.135Z,99.99
2019-06-11T04:36:18.431Z,99.99
2019-06-11T04:37:37.436Z,99.99
2019-06-11T04:38:24.118Z,99.99
2019-06-11T04:39:17.883Z,99.99
2019-06-11T04:40:17.978Z,99.99
2019-06-11T04:41:19.462Z,99.99
2019-06-11T04:42:17.983Z,99.99
2019-06-11T04:43:18.178Z,99.99
2019-06-11T04:44:18.646Z,99.99
2019-06-11T04:45:19.494Z,99.99
2019-06-11T04:46:19.928Z,99.99
2019-06-11T04:47:18.681Z,99.99
2019-06-11T04:48:19.385Z,99.99
2019-06-11T04:49:20.009Z,99.99
2019-06-11T04:50:20.183Z,99.99
2019-06-11T04:51:19.970Z,99.99
2019-06-11T04:52:18.505Z,99.99
2019-06-11T04:53:18.444Z,99.99
2019-06-11T04:54:19.558Z,99.99
2019-06-11T04:55:19.891Z,99.99
2019-06-11T04:56:19.308Z,99.99
2019-06-11T04:57:18.579Z,99.99
2019-06-11T04:58:19.232Z,99.99
2019-06-11T04:59:20.024Z,99.99
2019-06-11T05:00:26.845Z,99.99
2019-06-11T05:05:18.428Z,99.99
2019-06-11T05:06:19.322Z,99.99
2019-06-11T05:07:33.898Z,99.99
2019-06-11T05:08:20.647Z,99.99
2019-06-11T05:09:18.685Z,99.99
2019-06-11T05:10:17.454Z,99.99
2019-06-11T05:11:19.053Z,99.99
2019-06-11T05:12:17.984Z,99.99
2019-06-11T05:13:17.041Z,99.99
2019-06-11T05:14:25.146Z,99.99
2019-06-11T05:15:16.856Z,99.99
2019-06-11T05:16:17.749Z,99.99
2019-06-11T05:17:17.262Z,99.99
2019-06-11T05:18:17.395Z,99.99
2019-06-11T05:19:17.686Z,99.99
2019-06-11T05:20:17.176Z,99.99
2019-06-11T05:21:17.338Z,99.99
2019-06-11T05:22:17.548Z,99.99
2019-06-11T05:23:17.104Z,99.99
2019-06-11T05:24:17.289Z,99.99
2019-06-11T05:25:17.167Z,99.99
2019-06-11T05:26:17.510Z,99.99
2019-06-11T05:27:17.187Z,99.99
2019-06-11T05:28:17.365Z,99.99
2019-06-11T05:29:17.427Z,99.99
2019-06-11T05:30:19.927Z,99.99
2019-06-11T05:31:17.795Z,99.99
2019-06-11T05:32:17.807Z,99.99
2019-06-11T05:33:17.844Z,99.99
2019-06-11T05:34:17.976Z,99.99
2019-06-11T05:35:18.573Z,99.99
2019-06-11T05:36:17.989Z,99.99
2019-06-11T05:37:18.101Z,99.99
2019-06-11T05:38:24.423Z,99.99
2019-06-11T05:39:16.495Z,99.99
2019-06-11T05:40:16.493Z,99.99
2019-06-11T05:41:16.471Z,99.99
2019-06-11T05:42:16.460Z,99.99
2019-06-11T05:43:16.433Z,99.99
2019-06-11T05:44:16.421Z,99.99
2019-06-11T05:45:16.416Z,99.99
2019-06-11T05:46:16.409Z,99.99
2019-06-11T05:47:16.379Z,99.99
2019-06-11T05:48:16.370Z,99.99
2019-06-11T05:49:16.349Z,99.99
2019-06-11T05:50:16.329Z,99.99
2019-06-11T05:51:16.320Z,99.99
2019-06-11T05:52:16.297Z,99.99
2019-06-11T05:53:16.289Z,99.99
2019-06-11T05:54:16.275Z,99.99
2019-06-11T05:55:16.259Z,99.99
2019-06-11T05:56:16.239Z,99.99
2019-06-11T05:57:16.226Z,99.99
2019-06-11T05:58:16.206Z,99.99
2019-06-11T05:59:16.193Z,99.99
2019-06-11T06:00:16.178Z,99.99
2019-06-11T06:01:29.720Z,99.99
2019-06-11T06:02:16.149Z,99.99
2019-06-11T06:03:16.140Z,99.99
2019-06-11T06:04:16.121Z,99.99
2019-06-11T06:05:16.102Z,99.99
2019-06-11T06:06:16.102Z,99.99
2019-06-11T06:07:16.079Z,99.99
2019-06-11T06:08:19.454Z,99.99
2019-06-11T06:09:16.044Z,99.99
2019-06-11T06:10:16.033Z,99.99
2019-06-11T06:11:16.013Z,99.99
2019-06-11T06:12:16.002Z,99.99
2019-06-11T06:13:15.985Z,99.99
2019-06-11T06:14:15.971Z,99.99
2019-06-11T06:15:15.956Z,99.99
2019-06-11T06:16:15.938Z,99.99
2019-06-11T06:17:15.930Z,99.99
2019-06-11T06:18:15.912Z,99.99
2019-06-11T06:19:15.897Z,99.99
2019-06-11T06:20:15.879Z,99.99
2019-06-11T06:21:15.867Z,99.99
2019-06-11T06:22:15.856Z,99.99
2019-06-11T06:23:15.871Z,99.99
2019-06-11T06:24:24.040Z,99.99
2019-06-11T06:25:15.817Z,99.99
2019-06-11T06:26:15.803Z,99.99
2019-06-11T06:27:15.803Z,99.99
2019-06-11T06:28:15.772Z,99.99
2019-06-11T06:29:15.756Z,99.99
2019-06-11T06:30:15.735Z,99.99
2019-06-11T06:31:15.725Z,99.99
2019-06-11T06:32:15.709Z,99.99
2019-06-11T06:33:15.701Z,99.99
2019-06-11T06:34:15.681Z,99.99
2019-06-11T06:35:15.666Z,99.99
2019-06-11T06:36:15.649Z,99.99
2019-06-11T06:37:15.639Z,99.99
2019-06-11T06:38:30.426Z,99.99
2019-06-11T06:39:15.609Z,99.99
2019-06-11T06:40:15.598Z,99.99
2019-06-11T06:41:15.580Z,99.99
2019-06-11T06:42:15.573Z,99.99
2019-06-11T06:43:15.560Z,99.99
2019-06-11T06:44:15.542Z,99.99
2019-06-11T06:45:15.526Z,99.99
2019-06-11T06:46:15.521Z,99.99
2019-06-11T06:47:15.497Z,99.99
2019-06-11T06:48:15.485Z,99.99
2019-06-11T06:49:15.468Z,99.99
2019-06-11T06:50:15.451Z,99.99
2019-06-11T06:51:15.447Z,99.99
2019-06-11T06:52:15.428Z,99.99
2019-06-11T06:53:15.416Z,99.99
2019-06-11T06:54:15.408Z,99.99
2019-06-11T06:55:15.388Z,99.99
2019-06-11T06:56:15.374Z,99.99
2019-06-11T06:57:15.357Z,99.99
2019-06-11T06:58:15.345Z,99.99
2019-06-11T06:59:15.343Z,99.99
2019-06-11T07:00:15.316Z,99.99
2019-06-11T07:01:15.303Z,99.99
2019-06-11T07:02:15.295Z,99.99
2019-06-11T07:03:15.286Z,99.99
2019-06-11T07:04:15.266Z,99.99
2019-06-11T07:05:15.251Z,99.99
2019-06-11T07:06:15.236Z,99.99
2019-06-11T07:07:15.219Z,99.99
2019-06-11T07:08:15.204Z,99.99
2019-06-11T07:09:15.201Z,99.99
2019-06-11T07:10:15.179Z,99.99
2019-06-11T07:11:15.171Z,99.99
2019-06-11T07:12:15.149Z,99.99
2019-06-11T07:13:18.152Z,99.99
2019-06-11T07:14:15.121Z,99.99
2019-06-11T07:15:15.120Z,99.99
2019-06-11T07:16:15.092Z,99.99
2019-06-11T07:17:15.079Z,99.99
2019-06-11T07:18:15.065Z,99.99
2019-06-11T07:19:15.063Z,99.99
2019-06-11T07:20:15.038Z,99.99
2019-06-11T07:21:15.023Z,99.99
2019-06-11T07:22:15.010Z,99.99
2019-06-11T07:23:14.995Z,99.99
2019-06-11T07:24:14.985Z,99.99
2019-06-11T07:25:14.966Z,99.99
2019-06-11T07:26:14.953Z,99.99
2019-06-11T07:27:14.946Z,99.99
2019-06-11T07:28:14.924Z,99.99
2019-06-11T07:29:14.914Z,99.99
2019-06-11T07:30:14.915Z,99.99
2019-06-11T07:31:14.883Z,99.99
2019-06-11T07:32:14.876Z,99.99
2019-06-11T07:33:14.856Z,99.99
2019-06-11T07:34:14.844Z,99.99
2019-06-11T07:35:14.826Z,99.99
2019-06-11T07:36:14.813Z,99.99
2019-06-11T07:37:14.798Z,99.99
2019-06-11T07:38:14.785Z,99.99
2019-06-11T07:39:22.659Z,99.99
2019-06-11T07:40:14.757Z,99.99
2019-06-11T07:41:14.756Z,99.99
2019-06-11T07:42:14.730Z,99.99
2019-06-11T07:43:14.735Z,99.99
2019-06-11T07:44:14.703Z,99.99
2019-06-11T07:45:14.688Z,99.99
2019-06-11T07:46:32.894Z,99.99
2019-06-11T07:47:14.665Z,99.99
2019-06-11T07:48:14.648Z,99.99
2019-06-11T07:49:14.641Z,99.99
2019-06-11T07:50:14.621Z,99.99
2019-06-11T07:51:14.607Z,99.99
2019-06-11T07:52:14.593Z,99.99
2019-06-11T07:53:14.579Z,99.99
2019-06-11T07:54:14.568Z,99.99
2019-06-11T07:55:14.561Z,99.99
2019-06-11T07:56:14.537Z,99.99
2019-06-11T07:57:14.590Z,99.99
2019-06-11T07:58:14.518Z,99.99
2019-06-11T07:59:14.496Z,99.99
2019-06-11T08:00:14.495Z,99.99
2019-06-11T08:01:14.472Z,99.99
2019-06-11T08:02:14.458Z,99.99
2019-06-11T08:03:14.442Z,99.99
2019-06-11T08:04:14.429Z,99.99
2019-06-11T08:05:14.424Z,99.99
2019-06-11T08:06:14.427Z,99.99
2019-06-11T08:07:14.387Z,99.99
2019-06-11T08:08:14.372Z,99.99
2019-06-11T08:09:15.072Z,99.99
2019-06-11T08:10:27.674Z,99.99
2019-06-11T08:11:14.333Z,99.99
2019-06-11T08:12:14.326Z,99.99
2019-06-11T08:13:14.583Z,99.99
2019-06-11T08:14:15.784Z,99.99
2019-06-11T08:15:14.285Z,99.99
2019-06-11T08:16:17.394Z,99.99
2019-06-11T08:17:14.530Z,99.99
2019-06-11T08:18:14.923Z,99.99
2019-06-11T08:19:16.596Z,99.99
2019-06-11T08:20:54.667Z,99.99
2019-06-11T08:21:35.546Z,99.99
2019-06-11T08:23:14.433Z,99.99
2019-06-11T08:24:21.473Z,99.99
2019-06-11T08:25:53.628Z,99.99
2019-06-11T08:27:11.340Z,99.99
2019-06-11T08:27:29.818Z,99.99
2019-06-11T08:28:15.722Z,99.99
2019-06-11T08:29:14.092Z,99.99
2019-06-11T08:30:14.075Z,99.99
2019-06-11T08:31:14.064Z,99.99
2019-06-11T08:32:14.044Z,99.99
2019-06-11T08:33:14.037Z,99.99
2019-06-11T08:34:14.021Z,99.99
2019-06-11T08:35:14.008Z,99.99
2019-06-11T08:36:13.990Z,99.99
2019-06-11T08:37:13.986Z,99.99
2019-06-11T08:38:13.963Z,99.99
2019-06-11T08:39:13.958Z,99.99
2019-06-11T08:40:19.885Z,99.99
2019-06-11T08:41:13.924Z,99.99
2019-06-11T08:42:13.916Z,99.99
2019-06-11T08:43:13.910Z,99.99
2019-06-11T08:44:13.883Z,99.99
2019-06-11T08:45:19.983Z,99.99
2019-06-11T08:46:13.860Z,99.99
2019-06-11T08:47:13.845Z,99.99
2019-06-11T08:48:13.828Z,99.99
2019-06-11T08:49:13.818Z,99.99
2019-06-11T08:50:13.806Z,99.99
2019-06-11T08:51:13.794Z,99.99
2019-06-11T08:52:13.780Z,99.99
2019-06-11T08:53:14.589Z,99.99
2019-06-11T08:54:13.760Z,99.99
2019-06-11T08:55:13.740Z,99.99
2019-06-11T08:56:13.735Z,99.99
2019-06-11T08:57:13.721Z,99.99
2019-06-11T08:58:13.728Z,99.99
2019-06-11T08:59:13.691Z,99.99
2019-06-11T09:00:29.510Z,99.99
2019-06-11T09:01:13.722Z,99.99
2019-06-11T09:02:13.659Z,99.99
2019-06-11T09:03:13.636Z,99.99
2019-06-11T09:04:13.630Z,99.99
2019-06-11T09:05:13.607Z,99.99
2019-06-11T09:06:13.961Z,99.99
2019-06-11T09:07:13.585Z,99.99
2019-06-11T09:08:13.577Z,99.99
2019-06-11T09:09:13.555Z,99.99
2019-06-11T09:10:27.222Z,99.68
2019-06-11T09:11:13.528Z,98.05
2019-06-11T09:12:13.516Z,97.76
2019-06-11T09:13:13.505Z,97.04
2019-06-11T09:14:13.497Z,95.89
2019-06-11T09:15:13.478Z,95.12
2019-06-11T09:16:13.464Z,94.11
2019-06-11T09:17:13.451Z,94.11
2019-06-11T09:18:14.273Z,94.06
2019-06-11T09:19:13.448Z,93.77
2019-06-11T09:20:13.415Z,93.87
2019-06-11T09:21:13.400Z,93.15
2019-06-11T09:22:13.395Z,92.95
2019-06-11T09:23:13.382Z,91.75
2019-06-11T09:24:13.363Z,91.70
2019-06-11T09:25:13.350Z,91.60
2019-06-11T09:26:13.340Z,91.41
2019-06-11T09:27:13.327Z,91.31
2019-06-11T09:28:13.321Z,91.46
2019-06-11T09:29:13.303Z,90.69
2019-06-11T09:30:13.909Z,89.09
2019-06-11T09:31:13.279Z,88.38
2019-06-11T09:32:13.269Z,88.95
2019-06-11T09:33:13.255Z,89.39
2019-06-11T09:34:13.245Z,89.14
2019-06-11T09:35:13.230Z,87.70
2019-06-11T09:36:13.224Z,87.70
2019-06-11T09:37:13.216Z,86.63
2019-06-11T09:38:13.198Z,85.42
2019-06-11T09:39:13.187Z,85.71
2019-06-11T09:40:13.176Z,86.33
2019-06-11T09:41:13.173Z,83.87
2019-06-11T09:42:13.155Z,82.81
2019-06-11T09:43:13.150Z,83.33
2019-06-11T09:44:13.148Z,81.92
2019-06-11T09:45:13.131Z,82.69
2019-06-11T09:46:13.130Z,80.28
2019-06-11T09:47:13.110Z,79.50
2019-06-11T09:48:13.098Z,79.47
2019-06-11T09:49:14.578Z,79.56
2019-06-11T09:50:13.077Z,81.35
2019-06-11T09:51:13.071Z,83.11
2019-06-11T09:52:13.057Z,84.42
2019-06-11T09:53:13.047Z,85.72
2019-06-11T09:54:13.038Z,86.54
2019-06-11T09:55:13.036Z,87.40
2019-06-11T09:56:13.019Z,86.18
2019-06-11T09:57:13.012Z,84.39
2019-06-11T09:58:12.997Z,80.76
2019-06-11T09:59:12.993Z,76.67
2019-06-11T10:00:12.987Z,77.25
2019-06-11T10:01:12.977Z,77.63
2019-06-11T10:02:12.963Z,77.44
2019-06-11T10:03:12.954Z,77.05
2019-06-11T10:04:12.940Z,78.02
2019-06-11T10:05:12.936Z,79.24
2019-06-11T10:06:12.924Z,81.45
2019-06-11T10:07:12.912Z,81.76
2019-06-11T10:08:12.911Z,84.42
2019-06-11T10:09:12.905Z,85.82
2019-06-11T10:10:12.882Z,87.84
2019-06-11T10:12:12.879Z,87.60
2019-06-11T10:13:12.859Z,88.38
2019-06-11T10:14:12.843Z,87.99
2019-06-11T10:15:12.830Z,88.14
2019-06-11T10:16:12.821Z,88.81
2019-06-11T10:17:14.551Z,88.85
2019-06-11T10:18:12.806Z,89.05
2019-06-11T10:19:12.785Z,89.58
2019-06-11T10:20:12.777Z,87.55
2019-06-11T10:21:12.781Z,87.84
2019-06-11T10:22:12.760Z,87.55
2019-06-11T10:23:12.742Z,87.65
2019-06-11T10:24:12.744Z,87.84
2019-06-11T10:25:12.715Z,87.65
2019-06-11T10:26:12.707Z,87.74
2019-06-11T10:27:12.696Z,87.90
2019-06-11T10:28:18.486Z,87.94
2019-06-11T10:29:12.685Z,86.88
2019-06-11T10:30:12.661Z,86.54
2019-06-11T10:31:12.648Z,84.69
2019-06-11T10:32:12.635Z,81.80
2019-06-11T10:33:12.624Z,82.57
2019-06-11T10:34:12.620Z,83.87
2019-06-11T10:35:12.609Z,83.05
2019-06-11T10:36:12.594Z,81.60
2019-06-11T10:37:12.579Z,83.15
2019-06-11T10:38:12.576Z,82.67
2019-06-11T10:39:12.580Z,83.44
2019-06-11T10:40:12.546Z,85.09
2019-06-11T10:41:12.534Z,85.81
2019-06-11T10:42:12.524Z,85.13
2019-06-11T10:43:12.515Z,84.31
2019-06-11T10:44:12.499Z,83.44
2019-06-11T10:45:12.488Z,84.50
2019-06-11T10:46:12.490Z,83.39
2019-06-11T10:47:13.633Z,83.04
2019-06-11T10:48:12.456Z,81.40
2019-06-11T10:49:12.443Z,79.37
2019-06-11T10:50:12.433Z,80.82
2019-06-11T10:51:12.427Z,81.98
2019-06-11T10:52:12.413Z,80.91
2019-06-11T10:53:12.405Z,79.47
2019-06-11T10:54:12.394Z,79.52
2019-06-11T10:55:12.384Z,79.08
2019-06-11T10:56:12.425Z,75.93
2019-06-11T10:57:12.395Z,75.02
2019-06-11T10:58:12.383Z,77.50
2019-06-11T10:59:14.733Z,78.66
2019-06-11T11:00:14.530Z,75.85
2019-06-11T11:01:12.318Z,76.28
2019-06-11T11:02:12.305Z,77.92
2019-06-11T11:03:12.298Z,77.28
2019-06-11T11:04:12.286Z,75.64
2019-06-11T11:05:12.273Z,72.36
2019-06-11T11:06:12.264Z,69.84
2019-06-11T11:07:12.254Z,70.04
2019-06-11T11:08:12.270Z,71.48
2019-06-11T11:09:12.230Z,72.16
2019-06-11T11:10:12.245Z,71.33
2019-06-11T11:11:12.786Z,70.46
2019-06-11T11:12:24.257Z,71.56
2019-06-11T11:13:12.190Z,71.84
2019-06-11T11:14:12.178Z,74.01
2019-06-11T11:15:12.170Z,67.21
2019-06-11T11:16:12.772Z,64.18
2019-06-11T11:17:12.145Z,64.27
2019-06-11T11:18:12.975Z,63.08
2019-06-11T11:19:12.125Z,64.66
2019-06-11T11:20:12.121Z,63.79
2019-06-11T11:21:12.103Z,66.14
2019-06-11T11:22:12.098Z,68.66
2019-06-11T11:23:12.087Z,63.43
2019-06-11T11:24:12.075Z,63.73
2019-06-11T11:25:12.063Z,62.69
2019-06-11T11:26:12.566Z,61.82
2019-06-11T11:27:12.049Z,61.33
2019-06-11T11:28:21.796Z,63.76
2019-06-11T11:29:12.019Z,65.40
2019-06-11T11:30:12.015Z,63.01
2019-06-11T11:31:12.002Z,60.78
2019-06-11T11:32:11.991Z,61.27
2019-06-11T11:33:12.191Z,61.08
2019-06-11T11:34:11.970Z,61.69
2019-06-11T11:35:11.965Z,59.36
2019-06-11T11:36:12.166Z,59.17
2019-06-11T11:37:15.003Z,59.63
2019-06-11T11:38:11.929Z,60.21
2019-06-11T11:39:11.920Z,59.79
2019-06-11T11:40:11.908Z,61.43
2019-06-11T11:41:11.898Z,63.76
2019-06-11T11:42:20.848Z,65.53
2019-06-11T11:43:11.881Z,61.18
2019-06-11T11:44:11.867Z,59.63
2019-06-11T11:45:11.856Z,59.94
2019-06-11T11:46:11.851Z,62.95
2019-06-11T11:47:11.837Z,63.53
2019-06-11T11:48:11.830Z,57.81
2019-06-11T11:49:11.817Z,55.58
2019-06-11T11:50:11.812Z,55.68
2019-06-11T11:51:11.812Z,54.55
2019-06-11T11:52:11.791Z,55.52
2019-06-11T11:53:11.779Z,54.94
2019-06-11T11:54:11.775Z,53.58
2019-06-11T11:55:11.762Z,53.49
2019-06-11T11:56:12.651Z,51.81
2019-06-11T11:57:11.742Z,52.39
2019-06-11T11:58:11.760Z,53.14
2019-06-11T11:59:11.724Z,52.95
2019-06-11T12:00:17.947Z,54.21
2019-06-11T12:01:11.703Z,53.43
2019-06-11T12:02:11.707Z,53.41
2019-06-11T12:03:11.683Z,54.17
2019-06-11T12:04:12.671Z,54.57
2019-06-11T12:05:11.671Z,54.21
2019-06-11T12:06:12.331Z,54.98
2019-06-11T12:07:11.667Z,54.73
2019-06-11T12:08:11.632Z,57.05
2019-06-11T12:09:11.622Z,58.89
2019-06-11T12:10:11.616Z,59.18
2019-06-11T12:11:16.075Z,59.89
2019-06-11T12:12:11.613Z,58.65
2019-06-11T12:13:11.813Z,60.11
2019-06-11T12:14:11.752Z,58.95
2019-06-11T12:15:11.860Z,58.88
2019-06-11T12:16:21.811Z,59.53
2019-06-11T12:17:11.545Z,60.33
2019-06-11T12:18:11.800Z,59.56
2019-06-11T12:19:18.050Z,55.40
2019-06-11T12:20:11.517Z,55.32
2019-06-11T12:21:12.152Z,54.26
2019-06-11T12:22:11.497Z,54.19
2019-06-11T12:23:12.624Z,53.09
2019-06-11T12:24:11.478Z,54.35
2019-06-11T12:25:29.641Z,55.10
2019-06-11T12:26:11.489Z,56.20
2019-06-11T12:27:11.479Z,56.39
2019-06-11T12:28:11.455Z,54.55
2019-06-11T12:29:11.808Z,54.38
2019-06-11T12:30:14.907Z,55.64
2019-06-11T12:31:11.574Z,55.67
2019-06-11T12:32:12.015Z,54.90
2019-06-11T12:33:11.393Z,54.31
2019-06-11T12:34:12.101Z,53.92
2019-06-11T12:35:11.434Z,54.70
2019-06-11T12:36:11.599Z,55.67
2019-06-11T12:37:11.357Z,56.15
2019-06-11T12:38:11.348Z,56.64
2019-06-11T12:39:11.849Z,56.83
2019-06-11T12:40:11.662Z,56.25
2019-06-11T12:41:11.618Z,56.90
2019-06-11T12:42:11.372Z,56.61
2019-06-11T12:43:31.491Z,56.97
2019-06-11T12:44:11.298Z,57.45
2019-06-11T12:45:11.574Z,57.94
2019-06-11T12:46:11.905Z,58.33
2019-06-11T12:47:11.282Z,57.81
2019-06-11T12:48:11.256Z,59.17
2019-06-11T12:49:12.444Z,59.94
2019-06-11T12:50:11.718Z,59.00
2019-06-11T12:51:17.689Z,59.07
2019-06-11T12:52:11.219Z,58.39
2019-06-11T12:53:12.311Z,59.17
2019-06-11T12:54:11.204Z,58.75
2019-06-11T12:55:11.286Z,58.82
2019-06-11T12:56:12.383Z,59.40
2019-06-11T12:57:11.565Z,60.85
2019-06-11T12:58:11.763Z,59.91
2019-06-11T12:59:11.625Z,59.14
2019-06-11T13:00:12.449Z,58.78